Time;durP1;ratioP1;P1;durP2;ratioP2;P2;SDS_P1;SDS_P2;PMS_P1;PMS_P2;Temp;Humidity;BMP_temperature;BMP_pressure;BME280_temperature;BME280_humidity;BME280_pressure;Samples;Min_cycle;Max_cycle;Signal;HPM_P1;HPM_P2
2022/04/27 00:01:33;;;;;;;8.00;6.00;;;7.60;99.90;;;;;;5083954;28;20181;-66
2022/04/27 00:03:59;;;;;;;7.80;6.00;;;7.60;99.90;;;;;;5079387;28;20608;-66
2022/04/27 00:06:25;;;;;;;7.87;6.30;;;7.50;99.90;;;;;;5080258;28;20557;-64
2022/04/27 00:08:50;;;;;;;9.80;6.70;;;7.50;99.90;;;;;;5083550;28;20204;-65
2022/04/27 00:11:16;;;;;;;9.63;6.87;;;7.50;99.90;;;;;;5079924;28;20204;-68
2022/04/27 00:13:42;;;;;;;9.30;6.87;;;7.40;99.90;;;;;;5078899;28;20189;-66
2022/04/27 00:16:07;;;;;;;11.30;6.83;;;7.30;99.90;;;;;;5078653;28;20316;-65
2022/04/27 00:18:33;;;;;;;7.30;6.13;;;7.30;99.90;;;;;;5079859;28;20579;-66
2022/04/27 00:20:58;;;;;;;7.93;6.17;;;7.30;99.90;;;;;;5080154;28;20715;-68
2022/04/27 00:23:25;;;;;;;8.70;6.60;;;7.20;99.90;;;;;;5080276;28;20560;-66
2022/04/27 00:25:51;;;;;;;9.57;7.53;;;7.10;99.90;;;;;;5079336;28;20188;-65
2022/04/27 00:28:17;;;;;;;10.07;7.13;;;7.00;99.90;;;;;;5095105;28;20196;-67
2022/04/27 00:30:42;;;;;;;8.23;6.97;;;7.00;99.90;;;;;;5083125;28;20185;-68
2022/04/27 00:33:10;;;;;;;6.00;5.13;;;6.90;99.90;;;;;;5080193;28;20185;-67
2022/04/27 00:35:37;;;;;;;8.77;6.70;;;7.10;99.90;;;;;;5080888;28;20259;-67
2022/04/27 00:38:03;;;;;;;8.50;6.47;;;6.90;99.90;;;;;;5088724;28;20755;-67
2022/04/27 00:40:28;;;;;;;7.30;6.33;;;6.80;99.90;;;;;;5079347;28;20291;-68
2022/04/27 00:42:54;;;;;;;7.63;6.03;;;6.80;99.90;;;;;;5085125;28;20602;-67
2022/04/27 00:45:20;;;;;;;7.73;6.30;;;6.60;99.90;;;;;;5080091;28;20613;-67
2022/04/27 00:47:45;;;;;;;6.53;5.77;;;6.50;99.90;;;;;;5084027;28;20192;-66
2022/04/27 00:50:11;;;;;;;6.47;5.73;;;6.50;99.90;;;;;;5068205;28;20526;-68
2022/04/27 00:52:38;;;;;;;6.30;5.37;;;6.50;99.90;;;;;;5066272;28;20204;-67
2022/04/27 00:55:05;;;;;;;6.43;5.60;;;6.40;99.90;;;;;;5065882;28;20284;-66
2022/04/27 00:57:30;;;;;;;7.93;5.77;;;6.40;99.90;;;;;;5065464;28;20227;-66
2022/04/27 00:59:56;;;;;;;7.50;5.53;;;6.30;99.90;;;;;;5066353;28;20579;-66
2022/04/27 01:02:22;;;;;;;9.40;5.67;;;6.30;99.90;;;;;;5066349;28;20193;-67
2022/04/27 01:04:48;;;;;;;6.70;6.03;;;6.30;99.90;;;;;;5065051;28;20197;-68
2022/04/27 01:07:14;;;;;;;6.27;5.63;;;6.20;99.90;;;;;;5069159;28;20185;-67
2022/04/27 01:09:40;;;;;;;8.50;5.70;;;6.10;99.90;;;;;;5069393;28;20209;-68
2022/04/27 01:12:06;;;;;;;7.20;5.40;;;6.10;99.90;;;;;;5066195;28;20194;-67
2022/04/27 01:14:45;;;;;;;7.70;5.50;;;6.10;99.90;;;;;;5072153;28;20185;-67
2022/04/27 01:17:11;;;;;;;6.90;5.17;;;6.10;99.90;;;;;;5071446;28;20189;-67
2022/04/27 01:19:37;;;;;;;7.20;5.17;;;6.20;99.90;;;;;;5065694;28;20622;-66
2022/04/27 01:22:04;;;;;;;6.73;5.10;;;6.20;99.90;;;;;;5078817;28;20216;-66
2022/04/27 01:24:30;;;;;;;7.70;5.37;;;6.10;99.90;;;;;;5065943;28;20189;-68
2022/04/27 01:26:56;;;;;;;7.17;4.73;;;6.10;99.90;;;;;;5071638;28;20626;-67
2022/04/27 01:29:22;;;;;;;5.80;4.70;;;6.10;99.90;;;;;;5066046;28;20216;-67
2022/04/27 01:31:49;;;;;;;5.37;4.67;;;6.10;99.90;;;;;;5065541;28;20263;-67
2022/04/27 01:34:15;;;;;;;6.53;5.07;;;6.00;99.90;;;;;;5065971;28;20194;-67
2022/04/27 01:36:40;;;;;;;5.80;5.13;;;6.00;99.90;;;;;;5064893;28;20640;-66
2022/04/27 01:39:07;;;;;;;7.10;5.13;;;5.90;99.90;;;;;;5064951;28;20231;-66
2022/04/27 01:41:34;;;;;;;7.10;5.20;;;5.80;99.90;;;;;;5063930;28;20673;-67
2022/04/27 01:44:00;;;;;;;5.13;4.60;;;5.80;99.90;;;;;;5063368;28;20272;-66
2022/04/27 01:46:27;;;;;;;8.00;4.83;;;5.80;99.90;;;;;;5070831;28;20330;-66
2022/04/27 01:48:53;;;;;;;7.87;4.83;;;5.80;99.90;;;;;;5068126;28;20217;-68
2022/04/27 01:54:14;;;;;;;5.20;4.20;;;5.70;99.90;;;;;;5068992;28;20552;-65
2022/04/27 01:54:17;;;;;;;5.80;4.93;;;5.70;99.90;;;;;;5070827;28;20192;-67
2022/04/27 01:56:47;;;;;;;7.10;5.40;;;5.70;99.90;;;;;;5064788;28;20185;-67
2022/04/27 01:59:13;;;;;;;7.57;4.70;;;5.60;99.90;;;;;;5067000;28;20256;-65
2022/04/27 02:01:39;;;;;;;8.10;5.27;;;5.60;99.90;;;;;;5064009;28;20230;-67
2022/04/27 02:04:05;;;;;;;4.97;4.27;;;5.60;99.90;;;;;;5064932;28;20541;-67
2022/04/27 02:06:31;;;;;;;6.87;4.90;;;5.60;99.90;;;;;;5064795;28;20207;-66
2022/04/27 02:08:57;;;;;;;6.00;4.80;;;5.60;99.90;;;;;;5065951;28;20590;-69
2022/04/27 02:11:26;;;;;;;6.83;4.97;;;5.70;99.90;;;;;;5068339;28;20182;-67
2022/04/27 02:13:55;;;;;;;6.10;5.17;;;5.80;99.90;;;;;;5065288;28;20547;-67
2022/04/27 02:16:28;;;;;;;6.70;5.00;;;5.70;99.90;;;;;;5063132;28;20238;-68
2022/04/27 02:18:55;;;;;;;8.67;5.67;;;5.70;99.90;;;;;;5063895;28;20216;-67
2022/04/27 02:21:22;;;;;;;5.70;4.73;;;5.60;99.90;;;;;;5064812;28;20480;-66
2022/04/27 02:23:49;;;;;;;8.40;5.33;;;5.60;99.90;;;;;;5068198;28;20176;-66
2022/04/27 02:26:15;;;;;;;6.67;4.57;;;5.60;99.90;;;;;;5062721;28;20276;-66
2022/04/27 02:28:41;;;;;;;6.17;4.33;;;5.60;99.90;;;;;;5070618;28;20288;-66
2022/04/27 02:31:07;;;;;;;9.40;5.40;;;5.60;99.90;;;;;;5067350;28;20189;-68
2022/04/27 02:33:33;;;;;;;4.90;4.30;;;5.50;99.90;;;;;;5063999;28;20241;-67
2022/04/27 02:35:59;;;;;;;7.60;4.50;;;5.50;99.90;;;;;;5063693;28;20216;-68
2022/04/27 02:38:24;;;;;;;7.40;4.40;;;5.50;99.90;;;;;;5063364;28;20298;-66
2022/04/27 02:40:50;;;;;;;7.00;4.97;;;5.30;99.90;;;;;;5064064;28;20272;-67
2022/04/27 02:43:16;;;;;;;6.20;4.67;;;5.30;99.90;;;;;;5071539;28;20611;-67
2022/04/27 02:45:42;;;;;;;6.13;4.57;;;5.20;99.90;;;;;;5064204;28;20188;-67
2022/04/27 02:48:09;;;;;;;5.73;4.80;;;5.20;99.90;;;;;;5065460;28;20188;-68
2022/04/27 02:53:18;;;;;;;6.43;4.33;;;5.10;99.90;;;;;;5064086;28;21086;-66
2022/04/27 02:55:45;;;;;;;5.17;4.40;;;5.10;99.90;;;;;;5066664;28;20665;-68
2022/04/27 02:58:10;;;;;;;6.70;4.60;;;5.10;99.90;;;;;;5062963;28;20553;-65
2022/04/27 03:00:36;;;;;;;5.67;4.50;;;5.00;99.90;;;;;;5063945;28;20242;-68
2022/04/27 03:03:02;;;;;;;6.83;4.27;;;5.10;99.90;;;;;;5068374;28;20213;-67
2022/04/27 03:05:28;;;;;;;5.33;4.47;;;5.00;99.90;;;;;;5064193;28;20578;-67
2022/04/27 03:07:53;;;;;;;5.27;4.37;;;4.90;99.90;;;;;;5062935;28;20182;-65
2022/04/27 03:10:20;;;;;;;7.77;4.70;;;4.90;99.90;;;;;;5074090;28;20216;-65
2022/04/27 03:12:46;;;;;;;4.93;4.43;;;4.80;99.90;;;;;;5063646;28;20640;-65
2022/04/27 03:15:11;;;;;;;8.20;4.67;;;4.90;99.90;;;;;;5063951;28;20186;-64
2022/04/27 03:17:37;;;;;;;6.60;4.40;;;4.90;99.90;;;;;;5061518;28;20213;-66
2022/04/27 03:20:04;;;;;;;5.73;4.40;;;4.90;99.90;;;;;;5063522;28;20299;-64
2022/04/27 03:22:30;;;;;;;7.47;4.80;;;4.90;99.90;;;;;;5066798;28;20178;-65
2022/04/27 03:24:56;;;;;;;6.57;4.40;;;4.90;99.90;;;;;;5069018;28;20189;-68
2022/04/27 03:27:21;;;;;;;7.07;4.77;;;4.90;99.90;;;;;;5063953;28;20182;-68
2022/04/27 03:29:47;;;;;;;6.63;4.53;;;4.90;99.90;;;;;;5068460;28;20269;-68
2022/04/27 03:32:13;;;;;;;5.30;4.43;;;4.80;99.90;;;;;;5069931;28;20197;-68
2022/04/27 03:34:38;;;;;;;5.87;4.70;;;4.70;99.90;;;;;;5068852;28;20189;-67
2022/04/27 03:37:04;;;;;;;5.43;4.70;;;4.60;99.90;;;;;;5078032;28;20717;-68
2022/04/27 03:39:30;;;;;;;5.40;4.13;;;4.60;99.90;;;;;;5063473;28;20201;-67
2022/04/27 03:41:57;;;;;;;5.47;4.40;;;4.60;99.90;;;;;;5068491;28;21023;-67
2022/04/27 03:44:23;;;;;;;5.40;4.33;;;4.60;99.90;;;;;;5064130;28;20177;-69
2022/04/27 03:46:48;;;;;;;6.57;4.07;;;4.60;99.90;;;;;;5063696;28;20181;-69
2022/04/27 03:49:14;;;;;;;6.53;4.53;;;4.60;99.90;;;;;;5066472;28;20212;-66
2022/04/27 03:51:40;;;;;;;5.13;4.57;;;4.60;99.90;;;;;;5069690;28;20258;-66
2022/04/27 03:54:06;;;;;;;6.37;4.07;;;4.60;99.90;;;;;;5064216;28;21077;-67
2022/04/27 03:56:31;;;;;;;6.97;4.87;;;4.50;99.90;;;;;;5067205;28;20191;-68
2022/04/27 03:58:57;;;;;;;6.97;4.73;;;4.50;99.90;;;;;;5064766;28;20786;-69
2022/04/27 04:01:23;;;;;;;6.47;4.40;;;4.50;99.90;;;;;;5063778;28;20177;-67
2022/04/27 04:03:49;;;;;;;6.60;4.80;;;4.40;99.90;;;;;;5066197;28;20561;-67
2022/04/27 04:06:15;;;;;;;6.37;4.57;;;4.40;99.90;;;;;;5063761;28;20272;-69
2022/04/27 04:08:40;;;;;;;6.87;4.90;;;4.50;99.90;;;;;;5073824;28;20211;-66
2022/04/27 04:11:06;;;;;;;6.17;5.57;;;4.50;99.90;;;;;;5063640;28;20189;-67
2022/04/27 04:13:32;;;;;;;8.23;5.77;;;4.50;99.90;;;;;;5063093;28;20186;-66
2022/04/27 04:15:57;;;;;;;6.57;5.07;;;4.60;99.90;;;;;;5063904;28;20276;-68
2022/04/27 04:18:23;;;;;;;7.53;5.70;;;4.60;99.90;;;;;;5068559;28;20244;-68
2022/04/27 04:20:48;;;;;;;8.63;5.47;;;4.70;99.90;;;;;;5063790;28;20193;-69
2022/04/27 04:23:14;;;;;;;6.77;5.33;;;4.70;99.90;;;;;;5063304;28;20239;-69
2022/04/27 04:28:30;;;;;;;6.43;5.13;;;4.70;99.90;;;;;;5066217;28;20188;-68
2022/04/27 04:30:57;;;;;;;9.23;5.37;;;4.80;99.90;;;;;;5067033;28;20189;-66
2022/04/27 04:33:22;;;;;;;7.60;4.80;;;4.90;99.90;;;;;;5067243;28;20190;-65
2022/04/27 04:35:48;;;;;;;7.73;5.03;;;4.90;99.90;;;;;;5073777;28;20211;-66
2022/04/27 04:38:14;;;;;;;6.73;4.80;;;4.80;99.90;;;;;;5076428;28;20638;-66
2022/04/27 04:40:40;;;;;;;6.10;4.70;;;4.80;99.90;;;;;;5066603;28;20260;-65
2022/04/27 04:43:06;;;;;;;7.10;5.17;;;4.90;99.90;;;;;;5071273;28;20656;-67
2022/04/27 04:45:31;;;;;;;8.33;5.07;;;5.00;99.90;;;;;;5071067;28;20217;-66
2022/04/27 04:47:57;;;;;;;5.90;5.00;;;5.10;99.90;;;;;;5069958;28;20376;-67
2022/04/27 04:50:23;;;;;;;6.37;4.83;;;5.40;99.90;;;;;;5076914;28;20292;-68
2022/04/27 04:52:48;;;;;;;7.93;5.20;;;5.70;99.90;;;;;;5066362;28;20189;-68
2022/04/27 04:55:14;;;;;;;7.87;5.93;;;5.80;99.90;;;;;;5074546;28;20632;-67
2022/04/27 04:57:40;;;;;;;8.03;5.40;;;6.00;99.90;;;;;;5065812;28;20271;-66
2022/04/27 05:00:09;;;;;;;6.73;4.70;;;6.70;99.90;;;;;;5070449;28;20206;-67
2022/04/27 05:02:35;;;;;;;6.87;4.43;;;7.30;99.90;;;;;;5071049;28;20645;-66
2022/04/27 05:05:04;;;;;;;5.07;4.47;;;7.90;99.90;;;;;;5064529;28;20599;-67
2022/04/27 05:07:31;;;;;;;5.63;4.40;;;8.40;99.90;;;;;;5067718;28;20193;-65
2022/04/27 05:09:57;;;;;;;7.43;4.43;;;8.70;99.90;;;;;;5064145;28;20275;-67
2022/04/27 05:12:23;;;;;;;5.13;4.50;;;9.10;99.90;;;;;;5066123;28;20201;-68
2022/04/27 05:14:52;;;;;;;5.87;4.03;;;9.50;99.90;;;;;;5069473;28;20186;-67
2022/04/27 05:17:18;;;;;;;4.30;3.90;;;9.50;99.90;;;;;;5063500;28;20185;-67
2022/04/27 05:19:45;;;;;;;7.55;4.13;;;9.80;99.90;;;;;;5065794;28;20923;-67
2022/04/27 05:22:10;;;;;;;6.55;4.18;;;10.10;99.90;;;;;;5064000;28;20177;-67
2022/04/27 05:24:36;;;;;;;4.30;3.90;;;10.30;99.90;;;;;;5065888;28;20197;-67
2022/04/27 05:27:02;;;;;;;5.07;4.38;;;10.50;99.90;;;;;;5064858;28;20182;-68
2022/04/27 05:32:12;;;;;;;7.93;4.55;;;9.80;99.90;;;;;;5068042;28;20242;-66
2022/04/27 05:34:38;;;;;;;6.15;4.50;;;9.90;99.90;;;;;;5070963;28;20186;-67
2022/04/27 05:37:04;;;;;;;7.82;5.07;;;10.20;99.90;;;;;;5063724;28;20573;-68
2022/04/27 05:39:30;;;;;;;6.00;4.97;;;10.90;99.90;;;;;;5069849;28;20654;-68
2022/04/27 05:41:55;;;;;;;6.28;4.82;;;11.00;99.90;;;;;;5070095;28;20758;-67
2022/04/27 05:44:22;;;;;;;4.85;4.10;;;11.20;99.90;;;;;;5066618;28;20213;-67
2022/04/27 05:46:52;;;;;;;5.85;4.22;;;11.70;99.90;;;;;;5066039;28;20193;-66
2022/04/27 05:49:18;;;;;;;5.25;4.38;;;12.10;99.90;;;;;;5064397;28;20312;-68
2022/04/27 05:51:45;;;;;;;5.80;4.78;;;12.10;99.90;;;;;;5076609;28;20702;-67
2022/04/27 05:54:11;;;;;;;7.18;4.78;;;12.00;99.90;;;;;;5065042;28;20188;-68
2022/04/27 05:56:37;;;;;;;5.30;4.22;;;12.00;99.90;;;;;;5070138;28;20189;-66
2022/04/27 05:59:03;;;;;;;6.80;4.57;;;12.10;99.90;;;;;;5066315;28;20209;-69
2022/04/27 06:01:29;;;;;;;6.47;4.40;;;12.50;99.90;;;;;;5064787;28;20193;-69
2022/04/27 06:03:55;;;;;;;6.70;5.00;;;12.80;99.90;;;;;;5064939;28;20185;-67
2022/04/27 06:06:22;;;;;;;6.15;4.53;;;12.70;99.90;;;;;;5064296;28;20215;-66
2022/04/27 06:08:47;;;;;;;6.30;4.32;;;12.60;99.90;;;;;;5064351;28;20721;-68
2022/04/27 06:11:13;;;;;;;6.30;4.95;;;12.80;99.90;;;;;;5064957;28;20279;-66
2022/04/27 06:13:39;;;;;;;5.57;4.63;;;13.00;99.90;;;;;;5063232;28;20189;-67
2022/04/27 06:16:04;;;;;;;5.78;4.70;;;13.20;99.90;;;;;;5064504;28;20193;-68
2022/04/27 06:18:30;;;;;;;4.28;3.88;;;13.40;99.90;;;;;;5069305;28;20248;-66
2022/04/27 06:20:56;;;;;;;5.20;4.18;;;13.80;99.90;;;;;;5067562;28;20185;-69
2022/04/27 06:23:23;;;;;;;4.55;4.15;;;13.70;99.90;;;;;;5064799;28;20629;-67
2022/04/27 06:25:49;;;;;;;5.45;4.57;;;14.00;99.90;;;;;;5066739;28;20270;-68
2022/04/27 06:28:18;;;;;;;9.25;4.82;;;13.90;99.90;;;;;;5063930;28;20184;-67
2022/04/27 06:30:44;;;;;;;5.93;4.45;;;13.90;99.90;;;;;;5064946;28;20225;-66
2022/04/27 06:33:10;;;;;;;4.63;4.20;;;13.60;99.90;;;;;;5069564;28;20220;-67
2022/04/27 06:35:36;;;;;;;6.13;4.90;;;13.30;99.90;;;;;;5064424;28;20675;-67
2022/04/27 06:38:01;;;;;;;5.65;4.57;;;12.20;99.90;;;;;;5063795;28;20228;-69
2022/04/27 06:40:27;;;;;;;7.38;4.68;;;11.60;99.90;;;;;;5062366;28;20561;-68
2022/04/27 06:42:53;;;;;;;6.05;4.82;;;11.40;99.90;;;;;;5062065;28;20177;-66
2022/04/27 06:45:19;;;;;;;6.15;4.70;;;11.30;99.90;;;;;;5061944;28;20178;-67
2022/04/27 06:47:44;;;;;;;9.32;5.03;;;11.20;99.90;;;;;;5061005;28;20250;-68
2022/04/27 06:50:13;;;;;;;6.47;5.40;;;11.20;99.90;;;;;;5062128;28;20685;-68
2022/04/27 06:52:48;;;;;;;6.60;4.72;;;11.30;99.90;;;;;;5063630;28;20184;-67
2022/04/27 06:55:16;;;;;;;8.73;5.40;;;11.40;99.90;;;;;;5066944;28;20553;-66
2022/04/27 06:57:41;;;;;;;6.97;5.00;;;11.20;99.90;;;;;;5062793;28;20259;-66
2022/04/27 07:00:12;;;;;;;5.57;4.60;;;11.10;99.90;;;;;;5066504;28;20205;-66
2022/04/27 07:02:38;;;;;;;5.15;4.63;;;11.10;99.90;;;;;;5064110;28;20213;-68
2022/04/27 07:05:06;;;;;;;6.53;4.90;;;11.00;99.90;;;;;;5066353;28;20248;-66
2022/04/27 07:07:32;;;;;;;5.60;4.75;;;11.10;99.90;;;;;;5063605;28;20339;-65
2022/04/27 07:09:58;;;;;;;6.35;4.90;;;11.10;99.90;;;;;;5066872;28;20271;-68
2022/04/27 07:12:24;;;;;;;6.25;4.97;;;11.00;99.90;;;;;;5063619;28;20644;-66
2022/04/27 07:14:51;;;;;;;6.07;4.75;;;11.10;99.90;;;;;;5063767;28;20173;-68
2022/04/27 07:17:17;;;;;;;8.57;5.38;;;11.20;99.90;;;;;;5062516;28;20177;-66
2022/04/27 07:19:43;;;;;;;5.43;4.45;;;11.40;99.90;;;;;;5063536;28;20572;-67
2022/04/27 07:22:08;;;;;;;6.55;4.88;;;11.60;99.90;;;;;;5063689;28;20712;-66
2022/04/27 07:24:34;;;;;;;6.00;5.40;;;11.60;99.90;;;;;;5067538;28;20552;-67
2022/04/27 07:27:00;;;;;;;6.40;4.97;;;11.50;99.90;;;;;;5064832;28;20189;-65
2022/04/27 07:29:25;;;;;;;6.80;5.28;;;11.60;99.90;;;;;;5063138;28;20213;-65
2022/04/27 07:31:51;;;;;;;7.15;5.07;;;11.80;99.90;;;;;;5063669;28;20178;-68
2022/04/27 07:34:17;;;;;;;6.55;4.88;;;11.90;99.90;;;;;;5061804;28;20528;-67
2022/04/27 07:36:43;;;;;;;6.72;4.85;;;12.00;99.90;;;;;;5066390;28;20200;-67
2022/04/27 07:39:08;;;;;;;5.47;4.97;;;12.20;99.90;;;;;;5064330;28;20213;-67
2022/04/27 07:41:34;;;;;;;5.20;4.70;;;12.20;99.90;;;;;;5071440;28;20614;-66
2022/04/27 07:44:00;;;;;;;5.72;5.15;;;12.20;99.90;;;;;;5078671;28;20185;-68
2022/04/27 07:46:26;;;;;;;8.77;5.63;;;12.10;99.90;;;;;;5062538;28;20185;-67
2022/04/27 07:48:51;;;;;;;5.85;5.32;;;12.20;99.90;;;;;;5063083;28;20205;-65
2022/04/27 07:51:17;;;;;;;6.85;5.75;;;11.90;99.90;;;;;;5063107;28;20578;-66
2022/04/27 07:53:43;;;;;;;6.75;5.00;;;11.80;99.90;;;;;;5071279;28;20665;-68
2022/04/27 07:56:10;;;;;;;5.47;4.65;;;11.90;99.90;;;;;;5062625;28;20192;-68
2022/04/27 07:58:35;;;;;;;6.07;5.43;;;12.10;99.90;;;;;;5062915;28;20209;-66
2022/04/27 08:01:01;;;;;;;5.88;4.95;;;12.30;99.90;;;;;;5065312;28;20185;-66
2022/04/27 08:03:27;;;;;;;5.85;5.00;;;12.70;99.90;;;;;;5067157;28;20264;-67
2022/04/27 08:05:53;;;;;;;7.03;5.30;;;12.50;99.90;;;;;;5074144;28;20587;-67
2022/04/27 08:08:19;;;;;;;7.22;4.88;;;12.40;99.90;;;;;;5065828;28;20185;-67
2022/04/27 08:10:44;;;;;;;5.97;5.07;;;12.60;99.90;;;;;;5069903;28;20185;-68
2022/04/27 08:13:10;;;;;;;5.30;4.78;;;12.90;99.90;;;;;;5074499;28;20177;-67
2022/04/27 08:15:37;;;;;;;6.35;4.90;;;12.90;99.90;;;;;;5067155;28;20187;-68
2022/04/27 08:18:07;;;;;;;7.07;5.18;;;12.90;99.90;;;;;;5065972;28;20201;-67
2022/04/27 08:23:29;;;;;;;6.95;5.00;;;13.40;99.90;;;;;;5066919;28;20652;-66
2022/04/27 08:25:57;;;;;;;5.85;4.88;;;13.60;99.90;;;;;;5066398;28;20177;-66
2022/04/27 08:28:23;;;;;;;7.68;5.13;;;13.70;99.90;;;;;;5067616;28;20190;-67
2022/04/27 08:30:49;;;;;;;6.68;5.68;;;13.90;99.90;;;;;;5066458;28;20192;-67
2022/04/27 08:33:16;;;;;;;9.23;5.53;;;13.80;99.90;;;;;;5066532;28;20181;-67
2022/04/27 08:35:42;;;;;;;6.45;5.70;;;13.80;99.90;;;;;;5066378;28;20201;-68
2022/04/27 08:38:09;;;;;;;8.98;5.55;;;13.80;99.90;;;;;;5069703;28;20217;-66
2022/04/27 08:40:37;;;;;;;6.50;5.32;;;13.90;99.90;;;;;;5069887;28;20201;-65
2022/04/27 08:43:03;;;;;;;6.07;4.97;;;14.10;99.90;;;;;;5066424;28;20173;-65
2022/04/27 08:45:29;;;;;;;9.32;5.60;;;14.00;99.90;;;;;;5066403;28;20192;-67
2022/04/27 08:47:55;;;;;;;7.07;6.00;;;14.00;99.90;;;;;;5072991;28;20189;-68
2022/04/27 08:50:23;;;;;;;7.80;5.95;;;14.10;99.90;;;;;;5066161;28;20209;-68
2022/04/27 08:52:50;;;;;;;6.28;5.63;;;14.50;99.90;;;;;;5073896;28;20189;-68
2022/04/27 08:55:17;;;;;;;7.88;5.68;;;14.70;99.90;;;;;;5066094;28;20194;-68
2022/04/27 08:57:43;;;;;;;6.25;5.65;;;14.70;99.90;;;;;;5065300;28;20201;-66
2022/04/27 09:00:14;;;;;;;6.65;5.75;;;14.00;99.90;;;;;;5066102;28;20205;-65
2022/04/27 09:02:40;;;;;;;7.90;6.03;;;13.90;99.90;;;;;;5066012;28;20170;-68
2022/04/27 09:05:13;;;;;;;6.63;5.93;;;13.70;99.90;;;;;;5071949;28;20556;-66
2022/04/27 09:07:43;;;;;;;7.15;5.95;;;13.90;99.90;;;;;;5080690;28;20235;-67
2022/04/27 09:10:14;;;;;;;6.80;5.32;;;14.10;99.90;;;;;;5064056;28;20236;-66
2022/04/27 09:12:48;;;;;;;7.13;5.88;;;14.40;99.90;;;;;;5072852;28;20595;-67
2022/04/27 09:15:15;;;;;;;8.55;5.78;;;14.60;99.90;;;;;;5065274;28;20189;-68
2022/04/27 09:23:37;;;;;;;7.30;6.60;;;15.10;99.90;;;;;;5067979;28;20243;-68
2022/04/27 09:26:19;;;;;;;6.38;5.32;;;15.10;99.90;;;;;;5067189;28;20185;-66
2022/04/27 09:28:53;;;;;;;7.15;5.55;;;15.30;99.90;;;;;;5065253;28;20707;-67
2022/04/27 09:31:32;;;;;;;6.00;5.40;;;15.40;99.90;;;;;;5064980;28;20231;-67
2022/04/27 09:34:03;;;;;;;14.20;5.45;;;15.10;99.90;;;;;;5071637;28;20183;-67
2022/04/27 09:36:29;;;;;;;6.15;4.82;;;15.00;99.90;;;;;;5064571;28;20189;-67
2022/04/27 09:38:57;;;;;;;5.20;4.57;;;15.00;99.90;;;;;;5064712;28;20240;-67
2022/04/27 09:41:41;;;;;;;5.90;5.22;;;15.30;99.90;;;;;;5069966;28;20920;-68
2022/04/27 09:44:07;;;;;;;5.93;5.15;;;15.10;99.90;;;;;;5064891;28;20292;-66
2022/04/27 09:46:40;;;;;;;6.10;4.88;;;15.10;99.00;;;;;;5064824;28;20489;-68
2022/04/27 09:49:07;;;;;;;6.75;5.63;;;15.00;99.60;;;;;;5064637;28;20667;-67
2022/04/27 09:51:34;;;;;;;6.38;4.80;;;14.70;99.90;;;;;;5070440;28;20205;-67
2022/04/27 09:54:00;;;;;;;7.00;5.30;;;15.10;99.90;;;;;;5069782;28;20177;-69
2022/04/27 09:56:33;;;;;;;5.60;5.00;;;15.40;99.90;;;;;;5067341;28;20661;-67
2022/04/27 09:59:03;;;;;;;6.32;5.25;;;15.60;99.90;;;;;;5069637;28;20220;-68
2022/04/27 10:01:34;;;;;;;6.75;4.85;;;15.40;99.10;;;;;;5073718;28;20184;-69
2022/04/27 10:04:03;;;;;;;6.45;5.70;;;15.50;99.60;;;;;;5073613;28;20235;-67
2022/04/27 10:06:30;;;;;;;7.75;5.57;;;15.30;99.90;;;;;;5067267;28;20197;-69
2022/04/27 10:08:59;;;;;;;7.15;5.57;;;15.60;99.90;;;;;;5066732;28;20271;-70
2022/04/27 10:11:32;;;;;;;6.43;5.63;;;15.70;99.90;;;;;;5067441;28;20177;-69
2022/04/27 10:13:58;;;;;;;6.60;5.75;;;15.70;99.90;;;;;;5064329;28;20181;-69
2022/04/27 10:16:25;;;;;;;7.60;6.03;;;16.00;99.90;;;;;;5063930;28;20664;-68
2022/04/27 10:18:51;;;;;;;8.13;5.80;;;16.40;99.90;;;;;;5064100;28;20224;-67
2022/04/27 10:21:43;;;;;;;7.63;6.43;;;16.70;99.70;;;;;;5064260;28;20181;-67
2022/04/27 10:24:12;;;;;;;7.35;5.90;;;16.40;99.30;;;;;;5065103;28;20278;-67
2022/04/27 10:26:38;;;;;;;9.00;6.53;;;16.60;99.90;;;;;;5069789;28;20178;-68
2022/04/27 10:29:05;;;;;;;7.72;6.07;;;16.90;99.60;;;;;;5063083;28;20212;-70
2022/04/27 10:31:40;;;;;;;6.97;6.28;;;16.90;98.50;;;;;;5066461;28;20177;-70
2022/04/27 10:34:26;;;;;;;8.55;6.82;;;16.50;99.50;;;;;;5070579;28;20233;-69
2022/04/27 10:36:58;;;;;;;7.80;6.80;;;16.20;99.30;;;;;;5078687;28;20268;-70
2022/04/27 10:39:26;;;;;;;8.77;6.03;;;16.00;99.90;;;;;;5065383;28;20759;-69
2022/04/27 10:41:55;;;;;;;8.05;5.80;;;16.40;99.90;;;;;;5066105;28;20193;-69
2022/04/27 10:44:41;;;;;;;6.72;5.63;;;16.60;99.70;;;;;;5063508;28;20222;-67
2022/04/27 10:47:14;;;;;;;7.13;5.75;;;17.00;98.10;;;;;;5065028;28;20189;-67
2022/04/27 10:49:40;;;;;;;7.22;6.50;;;17.20;97.80;;;;;;5062011;28;20202;-68
2022/04/27 10:52:10;;;;;;;8.00;6.28;;;17.10;97.20;;;;;;5067913;28;20688;-68
2022/04/27 10:54:38;;;;;;;7.07;6.38;;;16.80;96.30;;;;;;5061956;28;20188;-67
2022/04/27 10:57:19;;;;;;;8.05;6.10;;;16.70;97.20;;;;;;5061319;28;20186;-67
2022/04/27 10:59:45;;;;;;;6.63;5.93;;;16.10;97.70;;;;;;5063342;28;20227;-67
2022/04/27 11:02:36;;;;;;;9.10;6.32;;;16.40;97.90;;;;;;5067929;28;20679;-68
2022/04/27 11:05:04;;;;;;;14.77;6.50;;;16.60;96.90;;;;;;5063362;28;20197;-67
2022/04/27 11:07:51;;;;;;;7.53;5.97;;;16.50;96.20;;;;;;5062924;28;20197;-67
2022/04/27 11:10:18;;;;;;;8.23;6.35;;;16.40;96.60;;;;;;5063800;28;20211;-66
2022/04/27 11:12:49;;;;;;;7.70;6.15;;;16.40;96.80;;;;;;5065252;28;20178;-69
2022/04/27 11:15:23;;;;;;;6.35;5.75;;;16.60;96.00;;;;;;5075222;28;20526;-67
2022/04/27 11:17:56;;;;;;;6.93;5.78;;;17.00;96.10;;;;;;5062636;28;20192;-69
2022/04/27 11:20:27;;;;;;;7.20;6.20;;;17.30;94.90;;;;;;5063894;28;20272;-65
2022/04/27 11:22:53;;;;;;;6.90;5.50;;;16.70;95.70;;;;;;5063905;28;20177;-69
2022/04/27 11:25:36;;;;;;;7.90;5.82;;;16.90;96.10;;;;;;5065721;28;20589;-69
2022/04/27 11:28:05;;;;;;;7.03;5.60;;;17.20;95.40;;;;;;5065401;28;20698;-66
2022/04/27 11:30:31;;;;;;;7.78;5.25;;;17.40;94.30;;;;;;5063241;28;20562;-69
2022/04/27 11:33:00;;;;;;;6.18;5.55;;;17.40;94.40;;;;;;5063618;28;20185;-67
2022/04/27 11:35:45;;;;;;;6.57;5.93;;;17.30;92.90;;;;;;5063607;28;20583;-68
2022/04/27 11:38:19;;;;;;;6.25;4.82;;;17.10;93.70;;;;;;5062275;28;20214;-70
2022/04/27 11:40:46;;;;;;;5.65;5.05;;;17.20;93.30;;;;;;5061400;28;20178;-69
2022/04/27 11:43:13;;;;;;;5.63;5.00;;;17.20;92.00;;;;;;5066701;28;20651;-70
2022/04/27 11:45:38;;;;;;;8.57;4.80;;;17.40;92.30;;;;;;5063265;28;20196;-68
2022/04/27 11:48:08;;;;;;;5.20;4.70;;;17.50;91.00;;;;;;5072719;28;20189;-69
2022/04/27 11:50:35;;;;;;;6.10;5.35;;;17.40;90.80;;;;;;5063337;28;20205;-68
2022/04/27 11:53:07;;;;;;;6.18;4.97;;;17.60;91.00;;;;;;5078561;28;20230;-68
2022/04/27 11:55:34;;;;;;;6.05;5.45;;;17.50;90.00;;;;;;5063354;28;20185;-69
2022/04/27 11:58:00;;;;;;;5.90;4.70;;;17.30;91.30;;;;;;5066778;28;20241;-68
2022/04/27 12:00:28;;;;;;;6.60;5.57;;;17.40;91.10;;;;;;5063489;28;20205;-68
2022/04/27 12:03:03;;;;;;;6.32;5.20;;;17.50;91.30;;;;;;5063349;28;20250;-69
2022/04/27 12:05:34;;;;;;;6.43;4.82;;;17.70;91.40;;;;;;5063033;28;20181;-67
2022/04/27 12:08:09;;;;;;;7.22;5.50;;;18.10;91.30;;;;;;5062332;28;21020;-71
2022/04/27 12:10:46;;;;;;;5.85;5.07;;;18.00;91.00;;;;;;5086280;28;20208;-68
2022/04/27 12:13:13;;;;;;;5.82;5.22;;;17.90;91.20;;;;;;5062231;28;20277;-69
2022/04/27 12:15:42;;;;;;;5.35;4.82;;;17.80;91.30;;;;;;5061703;28;20232;-68
2022/04/27 12:18:14;;;;;;;6.35;5.75;;;18.10;91.30;;;;;;5062217;28;20754;-69
2022/04/27 12:20:41;;;;;;;8.18;5.45;;;17.80;90.20;;;;;;5065645;28;20186;-70
2022/04/27 12:23:12;;;;;;;7.63;4.95;;;17.80;91.00;;;;;;5063821;28;20185;-69
2022/04/27 12:25:44;;;;;;;5.70;5.10;;;18.10;91.30;;;;;;5068437;28;20251;-66
2022/04/27 12:28:15;;;;;;;6.68;5.68;;;18.10;90.60;;;;;;5062746;28;20189;-69
2022/04/27 12:30:44;;;;;;;5.72;5.10;;;18.20;90.50;;;;;;5064585;28;20193;-68
2022/04/27 12:33:13;;;;;;;5.82;5.20;;;18.10;90.60;;;;;;5068232;28;20193;-68
2022/04/27 12:38:29;;;;;;;6.78;5.00;;;18.20;90.00;;;;;;5071843;28;20375;-66
2022/04/27 12:40:55;;;;;;;7.28;5.70;;;18.20;88.70;;;;;;5063622;28;20629;-69
2022/04/27 12:43:23;;;;;;;7.55;6.22;;;18.30;91.10;;;;;;5062506;28;20677;-67
2022/04/27 12:46:25;;;;;;;7.07;6.00;;;18.20;90.20;;;;;;5067676;28;20250;-66
2022/04/27 12:49:02;;;;;;;7.25;5.93;;;18.20;88.70;;;;;;5028348;28;20210;-69
2022/04/27 12:51:29;;;;;;;6.97;6.28;;;18.20;89.60;;;;;;5063374;28;20189;-66
2022/04/27 12:53:55;;;;;;;7.43;5.75;;;18.20;90.50;;;;;;5065013;28;20181;-68
2022/04/27 12:56:22;;;;;;;7.18;6.45;;;18.40;90.70;;;;;;5067460;28;20530;-67
2022/04/27 12:59:08;;;;;;;9.40;6.88;;;18.50;90.80;;;;;;5065072;28;20232;-66
2022/04/27 13:01:34;;;;;;;8.00;6.80;;;18.60;90.70;;;;;;5066403;28;20523;-68
2022/04/27 13:04:00;;;;;;;8.85;7.13;;;18.60;89.30;;;;;;5072291;28;20185;-67
2022/04/27 13:06:32;;;;;;;8.20;7.28;;;18.20;89.50;;;;;;5069536;28;21118;-67
2022/04/27 13:11:56;;;;;;;7.57;6.45;;;18.20;90.30;;;;;;5077623;28;20191;-68
2022/04/27 13:14:25;;;;;;;8.90;6.95;;;18.30;89.90;;;;;;5068151;28;20180;-68
2022/04/27 13:16:52;;;;;;;11.68;6.80;;;18.50;87.30;;;;;;5065300;28;20294;-69